Time;durP1;ratioP1;P1;durP2;ratioP2;P2;SDS_P1;SDS_P2;PMS_P1;PMS_P2;Temp;Humidity;BMP_temperature;BMP_pressure;BME280_temperature;BME280_humidity;BME280_pressure;Samples;Min_cycle;Max_cycle;Signal;HPM_P1;HPM_P2
2023/08/09 00:00:36;;;;;;;8.25;1.42;;;13.00;99.90;;;;;;5046950;28;20043;-72
2023/08/09 00:03:02;;;;;;;5.57;1.20;;;12.60;99.90;;;;;;5048304;28;20136;-72
2023/08/09 00:05:28;;;;;;;3.80;1.33;;;12.60;99.90;;;;;;5047613;28;20045;-72
2023/08/09 00:07:54;;;;;;;6.43;1.30;;;12.60;99.90;;;;;;5046628;28;20405;-72
2023/08/09 00:10:21;;;;;;;4.38;1.40;;;12.60;99.90;;;;;;5048018;28;20045;-72
2023/08/09 00:12:47;;;;;;;5.20;1.08;;;12.60;99.90;;;;;;5046314;28;20593;-71
2023/08/09 00:15:13;;;;;;;5.70;1.40;;;12.50;99.90;;;;;;5047618;28;20069;-71
2023/08/09 00:17:39;;;;;;;3.65;1.27;;;12.50;99.90;;;;;;5048124;28;20040;-71
2023/08/09 00:20:08;;;;;;;3.70;1.10;;;12.50;99.90;;;;;;5046570;28;20124;-71
2023/08/09 00:22:34;;;;;;;5.32;1.60;;;12.50;99.90;;;;;;5048142;28;20397;-72
2023/08/09 00:25:00;;;;;;;7.13;1.38;;;12.50;99.90;;;;;;5046478;28;20049;-73
2023/08/09 00:27:28;;;;;;;5.25;1.48;;;12.50;99.90;;;;;;5046415;28;20544;-72
2023/08/09 00:29:54;;;;;;;4.05;1.35;;;12.40;99.90;;;;;;5047837;28;20413;-72
2023/08/09 00:32:20;;;;;;;4.35;1.38;;;12.40;99.90;;;;;;5048079;28;20118;-71
2023/08/09 00:34:46;;;;;;;3.90;1.25;;;12.40;99.90;;;;;;5046469;28;20126;-72
2023/08/09 00:37:12;;;;;;;4.57;1.30;;;12.40;99.90;;;;;;5046415;28;20048;-72
2023/08/09 00:39:37;;;;;;;5.10;1.35;;;12.40;99.90;;;;;;5046131;28;20131;-72
2023/08/09 00:42:03;;;;;;;6.63;1.30;;;12.40;99.90;;;;;;5047587;28;20051;-72
2023/08/09 00:44:29;;;;;;;5.55;1.48;;;12.40;99.90;;;;;;5026149;28;20418;-72
2023/08/09 00:46:55;;;;;;;8.68;1.73;;;12.30;99.90;;;;;;5026603;28;20055;-72
2023/08/09 00:49:21;;;;;;;4.50;1.50;;;12.30;99.90;;;;;;5009826;28;20049;-72
2023/08/09 00:51:47;;;;;;;4.35;1.60;;;12.30;99.90;;;;;;5027645;28;20768;-73
2023/08/09 00:54:13;;;;;;;4.72;1.50;;;12.20;99.90;;;;;;5037350;28;20068;-72
2023/08/09 00:56:39;;;;;;;3.78;1.15;;;12.20;99.90;;;;;;5045563;28;20717;-72
2023/08/09 00:59:05;;;;;;;4.50;1.30;;;12.20;99.90;;;;;;5029282;28;20528;-72
2023/08/09 01:01:31;;;;;;;5.68;1.60;;;12.20;99.90;;;;;;5046108;28;20044;-72
2023/08/09 01:03:57;;;;;;;4.63;1.30;;;12.20;99.90;;;;;;5029535;28;20051;-73
2023/08/09 01:06:48;;;;;;;5.75;1.40;;;12.20;99.90;;;;;;5046095;28;20076;-73
2023/08/09 01:09:33;;;;;;;4.32;1.25;;;12.30;99.90;;;;;;5046344;28;20157;-73
2023/08/09 01:12:24;;;;;;;4.25;1.52;;;12.20;99.90;;;;;;5047986;28;20044;-72
2023/08/09 01:14:56;;;;;;;6.28;1.42;;;12.10;99.90;;;;;;5042000;28;20080;-73
2023/08/09 01:17:24;;;;;;;5.75;1.67;;;12.10;99.90;;;;;;5030625;28;20067;-72
2023/08/09 01:19:54;;;;;;;4.30;1.40;;;12.10;99.90;;;;;;5032925;28;20056;-73
2023/08/09 01:22:31;;;;;;;4.28;1.40;;;12.10;99.90;;;;;;5049614;28;20049;-72
2023/08/09 01:25:03;;;;;;;3.90;1.23;;;12.00;99.90;;;;;;5043339;28;20494;-72
2023/08/09 01:27:30;;;;;;;4.00;1.30;;;12.00;99.90;;;;;;5033257;28;20502;-72
2023/08/09 01:29:57;;;;;;;4.88;1.40;;;12.00;99.90;;;;;;5051009;28;20152;-73
2023/08/09 01:32:28;;;;;;;4.57;1.40;;;12.00;99.90;;;;;;5032929;28;20060;-73
2023/08/09 01:34:55;;;;;;;6.25;1.33;;;12.00;99.90;;;;;;5049616;28;20085;-72
2023/08/09 01:37:28;;;;;;;6.28;1.50;;;11.90;99.90;;;;;;5051040;28;20045;-72
2023/08/09 01:39:57;;;;;;;4.03;1.10;;;11.90;99.90;;;;;;5033015;28;20045;-73
2023/08/09 01:42:25;;;;;;;4.57;1.63;;;11.90;99.90;;;;;;5083338;28;20063;-73
2023/08/09 01:44:52;;;;;;;2.83;1.23;;;11.90;99.90;;;;;;5050790;28;20099;-73
2023/08/09 01:47:19;;;;;;;7.95;1.52;;;11.90;99.90;;;;;;5051175;28;20056;-70
2023/08/09 01:49:47;;;;;;;5.60;1.42;;;11.90;99.90;;;;;;5050700;28;20052;-70
2023/08/09 01:52:14;;;;;;;4.32;1.80;;;11.80;99.90;;;;;;5051005;28;20053;-70
2023/08/09 01:54:41;;;;;;;5.38;1.83;;;11.80;99.90;;;;;;5050447;28;20157;-70
2023/08/09 01:57:07;;;;;;;5.05;1.15;;;11.80;99.90;;;;;;5048953;28;20397;-70
2023/08/09 01:59:33;;;;;;;4.10;1.35;;;11.80;99.90;;;;;;5049510;28;20055;-70
2023/08/09 02:01:59;;;;;;;5.45;1.40;;;11.70;99.90;;;;;;5049578;28;20037;-69
2023/08/09 02:04:25;;;;;;;3.40;1.17;;;11.70;99.90;;;;;;5049038;28;20052;-70
2023/08/09 02:06:51;;;;;;;4.38;1.27;;;11.70;99.90;;;;;;5032461;28;20842;-70
2023/08/09 02:09:17;;;;;;;3.50;1.30;;;11.70;99.90;;;;;;5050393;28;20052;-69
2023/08/09 02:11:42;;;;;;;4.30;1.48;;;11.70;99.90;;;;;;5032611;28;20057;-69
2023/08/09 02:14:08;;;;;;;6.15;1.38;;;11.80;99.90;;;;;;5049442;28;20387;-70
2023/08/09 02:16:34;;;;;;;4.45;1.60;;;11.60;99.90;;;;;;5050492;28;20045;-69
2023/08/09 02:19:00;;;;;;;4.85;1.30;;;11.60;99.90;;;;;;5032159;28;20045;-69
2023/08/09 02:21:26;;;;;;;14.15;1.80;;;11.60;99.90;;;;;;5050405;28;20469;-69
2023/08/09 02:23:52;;;;;;;5.22;1.35;;;11.60;99.90;;;;;;5048315;28;20157;-69
2023/08/09 02:26:21;;;;;;;5.32;1.75;;;11.60;99.90;;;;;;5032349;28;20410;-69
2023/08/09 02:28:48;;;;;;;6.53;1.45;;;11.50;99.90;;;;;;5031468;28;20506;-69
2023/08/09 02:31:14;;;;;;;3.97;1.33;;;11.50;99.90;;;;;;5049994;28;20586;-69
2023/08/09 02:33:41;;;;;;;5.30;1.60;;;11.50;99.90;;;;;;5032049;28;20052;-69
2023/08/09 02:36:07;;;;;;;3.30;1.33;;;11.50;99.90;;;;;;5032590;28;20061;-69
2023/08/09 02:38:33;;;;;;;4.93;1.40;;;11.40;99.90;;;;;;5048377;28;20048;-69
2023/08/09 02:41:04;;;;;;;5.88;1.55;;;11.40;99.90;;;;;;5048955;28;20424;-69
2023/08/09 02:43:30;;;;;;;3.77;1.50;;;11.40;99.90;;;;;;5048754;28;20465;-69
2023/08/09 02:45:56;;;;;;;5.82;1.50;;;11.40;99.90;;;;;;5049726;28;20287;-69
2023/08/09 02:48:22;;;;;;;8.48;1.70;;;11.40;99.90;;;;;;5048036;28;20057;-69
2023/08/09 02:50:49;;;;;;;6.47;1.70;;;11.30;99.90;;;;;;5031837;28;20051;-69
2023/08/09 02:53:16;;;;;;;5.22;1.40;;;11.30;99.90;;;;;;5048234;28;20460;-69
2023/08/09 02:55:43;;;;;;;3.95;1.30;;;11.30;99.90;;;;;;5048069;28;20048;-69
2023/08/09 02:58:10;;;;;;;5.05;1.30;;;11.30;99.90;;;;;;5049364;28;20037;-69
2023/08/09 03:00:36;;;;;;;4.10;1.27;;;11.30;99.90;;;;;;5049654;28;20045;-69
2023/08/09 03:03:06;;;;;;;6.97;1.48;;;11.30;99.90;;;;;;5049442;28;20049;-68
2023/08/09 03:05:31;;;;;;;4.53;1.40;;;11.10;99.90;;;;;;5048292;28;20044;-72
2023/08/09 03:07:57;;;;;;;4.65;1.55;;;11.30;99.90;;;;;;5048095;28;20044;-72
2023/08/09 03:10:23;;;;;;;5.72;1.40;;;11.20;99.90;;;;;;5049757;28;20044;-72
2023/08/09 03:12:49;;;;;;;5.15;1.50;;;11.20;99.90;;;;;;5049143;28;20045;-72
2023/08/09 03:15:16;;;;;;;3.03;1.42;;;11.20;99.90;;;;;;5049487;28;20124;-72
2023/08/09 03:17:42;;;;;;;5.93;1.58;;;11.10;99.90;;;;;;5049179;28;20056;-72
2023/08/09 03:20:11;;;;;;;3.88;1.48;;;11.10;99.90;;;;;;5048005;28;20466;-72
2023/08/09 03:22:36;;;;;;;10.20;1.60;;;11.10;99.90;;;;;;5047981;28;20128;-72
2023/08/09 03:25:02;;;;;;;4.43;1.58;;;11.10;99.90;;;;;;5049224;28;20148;-72
2023/08/09 03:27:28;;;;;;;8.48;1.33;;;11.10;99.90;;;;;;5048965;28;20049;-72
2023/08/09 03:29:54;;;;;;;5.25;1.40;;;11.00;99.90;;;;;;5047721;28;20130;-72
2023/08/09 03:32:19;;;;;;;3.35;1.40;;;11.00;99.90;;;;;;5047828;28;20260;-72
2023/08/09 03:34:45;;;;;;;4.57;1.40;;;11.00;99.90;;;;;;5048398;28;20049;-72
2023/08/09 03:37:11;;;;;;;4.43;1.90;;;11.00;99.90;;;;;;5047709;28;20200;-72
2023/08/09 03:39:37;;;;;;;5.50;1.75;;;11.00;99.90;;;;;;5046999;28;20492;-72
2023/08/09 03:42:03;;;;;;;11.27;1.85;;;11.00;99.90;;;;;;5047870;28;20040;-72
2023/08/09 03:44:28;;;;;;;4.70;1.48;;;10.90;99.90;;;;;;5048755;28;20052;-72
2023/08/09 03:46:55;;;;;;;4.03;1.50;;;10.90;99.90;;;;;;5030932;28;20713;-73
2023/08/09 03:49:21;;;;;;;4.28;1.20;;;10.90;99.90;;;;;;5030247;28;20045;-72
2023/08/09 03:51:47;;;;;;;9.40;1.83;;;10.90;99.90;;;;;;5030835;28;20048;-72
2023/08/09 03:54:13;;;;;;;6.13;1.60;;;10.90;99.90;;;;;;5047386;28;20049;-72
2023/08/09 03:56:38;;;;;;;5.32;1.63;;;10.80;99.90;;;;;;5047565;28;20041;-72
2023/08/09 03:59:04;;;;;;;10.60;1.65;;;10.80;99.90;;;;;;5048480;28;20103;-72
2023/08/09 04:01:30;;;;;;;5.15;1.52;;;10.80;99.90;;;;;;5046686;28;20155;-72
2023/08/09 04:03:56;;;;;;;4.53;1.60;;;10.80;99.90;;;;;;5048176;28;20088;-72
2023/08/09 04:06:22;;;;;;;4.38;1.30;;;10.80;99.90;;;;;;5049087;28;20498;-72
2023/08/09 04:08:48;;;;;;;5.18;1.42;;;10.80;99.90;;;;;;5046813;28;20417;-73
2023/08/09 04:11:14;;;;;;;5.55;1.70;;;10.80;99.90;;;;;;5048221;28;20044;-72
2023/08/09 04:13:41;;;;;;;2.92;1.42;;;10.80;99.90;;;;;;5048157;28;20048;-73
2023/08/09 04:16:06;;;;;;;7.10;2.38;;;10.80;99.90;;;;;;5026569;28;20506;-72
2023/08/09 04:18:33;;;;;;;7.70;1.50;;;10.80;99.90;;;;;;5035158;28;20052;-72
2023/08/09 04:20:58;;;;;;;5.55;1.90;;;10.70;99.90;;;;;;5039477;28;20041;-73
2023/08/09 04:23:24;;;;;;;5.03;1.50;;;10.70;99.90;;;;;;5029728;28;20079;-72
2023/08/09 04:25:50;;;;;;;7.57;1.75;;;10.70;99.90;;;;;;5045989;28;20099;-73
2023/08/09 04:28:16;;;;;;;4.65;1.55;;;10.70;99.90;;;;;;5046581;28;20045;-73
2023/08/09 04:30:42;;;;;;;4.93;1.40;;;10.70;99.90;;;;;;5030152;28;20536;-72
2023/08/09 04:33:08;;;;;;;4.78;1.80;;;10.70;99.90;;;;;;5029380;28;20602;-72
2023/08/09 04:35:35;;;;;;;5.28;1.42;;;10.70;99.90;;;;;;5029159;28;20715;-73
2023/08/09 04:38:03;;;;;;;3.67;1.40;;;10.70;99.90;;;;;;5046410;28;20504;-72
2023/08/09 04:40:30;;;;;;;5.22;1.75;;;10.70;99.90;;;;;;5046709;28;20106;-72
2023/08/09 04:42:56;;;;;;;4.38;1.40;;;10.70;99.90;;;;;;5046201;28;20067;-72
2023/08/09 04:45:22;;;;;;;5.53;1.50;;;10.70;99.90;;;;;;5046238;28;20086;-72
2023/08/09 04:47:52;;;;;;;4.28;1.40;;;10.70;99.90;;;;;;5045314;28;20850;-72
2023/08/09 04:50:20;;;;;;;3.90;1.52;;;10.80;99.90;;;;;;5028948;28;20174;-72
2023/08/09 04:52:46;;;;;;;4.93;1.70;;;10.70;99.90;;;;;;5045256;28;20106;-72
2023/08/09 04:55:12;;;;;;;5.07;1.50;;;10.80;99.90;;;;;;5047377;28;20071;-72
2023/08/09 04:57:38;;;;;;;6.13;1.73;;;10.80;99.90;;;;;;5046642;28;20049;-72
2023/08/09 05:00:09;;;;;;;5.68;1.50;;;10.90;99.90;;;;;;5046842;28;20536;-73
2023/08/09 05:02:36;;;;;;;6.07;1.80;;;10.50;99.90;;;;;;5045933;28;20080;-72
2023/08/09 05:05:09;;;;;;;3.67;1.25;;;11.00;99.90;;;;;;5029164;28;20706;-72
2023/08/09 05:07:37;;;;;;;5.15;1.60;;;11.00;99.90;;;;;;5045903;28;20091;-72
2023/08/09 05:10:04;;;;;;;5.72;1.50;;;11.10;99.90;;;;;;5045348;28;20120;-72
2023/08/09 05:12:31;;;;;;;4.93;1.50;;;11.10;99.90;;;;;;5045732;28;20053;-72
2023/08/09 05:14:57;;;;;;;7.95;1.50;;;11.10;99.90;;;;;;5060787;28;20527;-72
2023/08/09 05:17:23;;;;;;;5.80;1.73;;;11.20;99.90;;;;;;5028051;28;20124;-72
2023/08/09 05:19:49;;;;;;;4.68;1.63;;;11.30;99.90;;;;;;5045650;28;20226;-72
2023/08/09 05:22:15;;;;;;;7.57;1.30;;;11.60;99.90;;;;;;5044613;28;20084;-73
2023/08/09 05:24:40;;;;;;;5.82;1.10;;;11.90;99.90;;;;;;5045501;28;20124;-72
2023/08/09 05:27:07;;;;;;;5.28;1.40;;;12.20;99.90;;;;;;5029823;28;20049;-73
2023/08/09 05:29:32;;;;;;;6.18;1.58;;;12.20;99.90;;;;;;5045467;28;20067;-72
2023/08/09 05:31:58;;;;;;;3.20;1.08;;;12.20;99.90;;;;;;5047087;28;20041;-73
2023/08/09 05:34:25;;;;;;;4.88;1.35;;;12.20;99.90;;;;;;5045560;28;20088;-72
2023/08/09 05:36:50;;;;;;;4.32;1.40;;;12.10;99.90;;;;;;5047485;28;20049;-72
2023/08/09 05:39:16;;;;;;;3.97;1.10;;;12.10;99.90;;;;;;5045523;28;20040;-72
2023/08/09 05:41:42;;;;;;;4.47;1.17;;;12.10;99.90;;;;;;5047071;28;20590;-72
2023/08/09 05:44:08;;;;;;;5.95;1.13;;;12.10;99.90;;;;;;5045473;28;20048;-71
2023/08/09 05:46:33;;;;;;;6.10;1.65;;;12.10;99.90;;;;;;5045102;28;20064;-72
2023/08/09 05:48:59;;;;;;;2.80;1.38;;;12.10;99.90;;;;;;5046041;28;20608;-72
2023/08/09 05:51:25;;;;;;;4.50;1.25;;;12.20;99.90;;;;;;5045271;28;20583;-72
2023/08/09 05:53:52;;;;;;;6.45;1.38;;;12.20;99.90;;;;;;5045600;28;20064;-72
2023/08/09 05:56:19;;;;;;;5.45;1.23;;;12.20;99.90;;;;;;5079218;28;20716;-72
2023/08/09 05:58:44;;;;;;;8.00;1.40;;;12.20;99.90;;;;;;5046381;28;20052;-71
2023/08/09 06:01:11;;;;;;;4.50;1.10;;;12.30;99.90;;;;;;5078745;28;20049;-71
2023/08/09 06:03:40;;;;;;;6.15;1.65;;;12.30;99.90;;;;;;5030712;28;20557;-72
2023/08/09 06:06:13;;;;;;;5.85;1.42;;;12.30;99.90;;;;;;5049394;28;20040;-72
2023/08/09 06:08:39;;;;;;;7.10;1.20;;;12.30;99.90;;;;;;5050560;28;20501;-71
2023/08/09 06:11:05;;;;;;;4.47;1.40;;;12.30;99.90;;;;;;5050303;28;20044;-72
2023/08/09 06:13:31;;;;;;;8.05;1.40;;;12.40;99.90;;;;;;5082661;28;20159;-71
2023/08/09 06:15:57;;;;;;;5.13;1.38;;;12.40;99.90;;;;;;5082655;28;20041;-72
2023/08/09 06:18:24;;;;;;;5.47;1.35;;;12.40;99.90;;;;;;5082745;28;20132;-72
2023/08/09 06:20:51;;;;;;;5.85;1.50;;;12.40;99.90;;;;;;5082880;28;20405;-71
2023/08/09 06:23:17;;;;;;;6.60;1.60;;;12.40;99.90;;;;;;5082609;28;20148;-72
2023/08/09 06:25:43;;;;;;;5.40;1.20;;;12.50;99.90;;;;;;5050279;28;20124;-72
2023/08/09 06:28:09;;;;;;;3.63;1.00;;;12.50;99.90;;;;;;5032499;28;20194;-72
2023/08/09 06:30:35;;;;;;;4.60;1.58;;;12.60;99.90;;;;;;5048803;28;20161;-72
2023/08/09 06:33:02;;;;;;;4.13;1.60;;;12.60;99.90;;;;;;5048846;28;20542;-72
2023/08/09 06:35:30;;;;;;;4.13;1.33;;;12.80;99.90;;;;;;5048783;28;20052;-72
2023/08/09 06:37:56;;;;;;;6.90;1.20;;;12.90;99.90;;;;;;5048560;28;20060;-72
2023/08/09 06:40:22;;;;;;;4.90;1.27;;;13.00;99.90;;;;;;5049612;28;20045;-72
2023/08/09 06:42:47;;;;;;;5.03;1.20;;;13.10;99.90;;;;;;5049249;28;20544;-72
2023/08/09 06:45:13;;;;;;;6.05;1.35;;;13.30;99.90;;;;;;5048590;28;20049;-72
2023/08/09 06:47:39;;;;;;;7.18;1.30;;;13.30;99.90;;;;;;5049938;28;20037;-72
2023/08/09 06:50:05;;;;;;;4.00;1.42;;;13.40;99.90;;;;;;5049756;28;20090;-72
2023/08/09 06:52:32;;;;;;;4.15;1.15;;;13.50;99.90;;;;;;5048703;28;20057;-72
2023/08/09 06:54:58;;;;;;;6.13;1.45;;;13.50;99.90;;;;;;5048095;28;20186;-73
2023/08/09 06:57:24;;;;;;;5.45;1.35;;;13.60;99.90;;;;;;5049854;28;20071;-72
2023/08/09 06:59:51;;;;;;;5.45;1.33;;;13.70;99.90;;;;;;5049478;28;20037;-72
2023/08/09 07:02:17;;;;;;;9.18;1.50;;;13.70;99.90;;;;;;5049702;28;20045;-73
2023/08/09 07:04:43;;;;;;;8.43;1.20;;;13.70;99.90;;;;;;5049139;28;20119;-72
2023/08/09 07:07:09;;;;;;;3.85;1.30;;;13.80;99.90;;;;;;5047825;28;20394;-72
2023/08/09 07:09:35;;;;;;;3.63;0.90;;;13.90;99.90;;;;;;5064354;28;20067;-72
2023/08/09 07:12:01;;;;;;;7.35;1.65;;;13.90;99.90;;;;;;5048111;28;20045;-72
2023/08/09 07:14:27;;;;;;;4.72;1.33;;;14.00;99.90;;;;;;5047334;28;20096;-72
2023/08/09 07:16:52;;;;;;;5.57;1.30;;;14.00;99.90;;;;;;5048514;28;20547;-72
2023/08/09 07:19:18;;;;;;;4.80;1.33;;;14.10;99.90;;;;;;5047757;28;20091;-72
2023/08/09 07:21:44;;;;;;;4.00;1.02;;;14.10;99.90;;;;;;5049111;28;20406;-73
2023/08/09 07:24:10;;;;;;;5.43;1.40;;;14.20;99.90;;;;;;5048468;28;20040;-72
2023/08/09 07:26:35;;;;;;;3.72;1.23;;;14.30;99.90;;;;;;5049192;28;20052;-73
2023/08/09 07:29:01;;;;;;;3.80;1.00;;;14.40;99.90;;;;;;5047804;28;20092;-73
2023/08/09 07:31:27;;;;;;;5.35;1.20;;;14.50;99.90;;;;;;5047809;28;20045;-73
2023/08/09 07:33:52;;;;;;;7.97;1.40;;;14.60;99.90;;;;;;5028138;28;20587;-73
2023/08/09 07:36:18;;;;;;;5.10;1.08;;;14.80;99.90;;;;;;5048584;28;20044;-72
2023/08/09 07:38:44;;;;;;;6.85;1.17;;;15.00;99.90;;;;;;5038902;28;20045;-73
2023/08/09 07:41:10;;;;;;;7.47;1.35;;;15.20;99.90;;;;;;5044045;28;20060;-72
2023/08/09 07:43:36;;;;;;;5.20;1.25;;;15.40;99.90;;;;;;5044635;28;20669;-73
2023/08/09 07:46:05;;;;;;;3.28;0.93;;;15.60;99.90;;;;;;5047328;28;20044;-73
2023/08/09 07:48:32;;;;;;;8.02;1.20;;;15.70;99.90;;;;;;5031289;28;20091;-73
2023/08/09 07:50:58;;;;;;;4.20;0.95;;;15.90;99.90;;;;;;5045269;28;20044;-73
2023/08/09 07:53:24;;;;;;;5.63;1.20;;;16.10;99.90;;;;;;5034455;28;20409;-73
2023/08/09 07:55:50;;;;;;;4.65;1.50;;;16.20;99.90;;;;;;5027059;28;20052;-73
2023/08/09 07:58:15;;;;;;;4.57;1.08;;;16.40;99.90;;;;;;5038621;28;20033;-73
2023/08/09 08:00:41;;;;;;;5.05;1.10;;;16.60;99.90;;;;;;5036011;28;20049;-74
2023/08/09 08:03:07;;;;;;;5.95;1.75;;;16.70;99.90;;;;;;5034173;28;20065;-73
2023/08/09 08:05:32;;;;;;;3.15;1.00;;;16.90;99.90;;;;;;5038276;28;20053;-73
2023/08/09 08:07:58;;;;;;;5.40;1.13;;;17.00;99.90;;;;;;5030231;28;20076;-73
2023/08/09 08:10:24;;;;;;;5.10;1.10;;;17.10;99.90;;;;;;5035078;28;20099;-74
2023/08/09 08:12:51;;;;;;;4.45;1.02;;;17.30;99.90;;;;;;5035239;28;20043;-74
2023/08/09 08:15:18;;;;;;;5.63;0.90;;;17.40;99.90;;;;;;5028349;28;20545;-73
2023/08/09 08:17:46;;;;;;;7.20;1.20;;;17.50;99.90;;;;;;5028788;28;20518;-73
2023/08/09 08:20:15;;;;;;;4.78;0.98;;;17.60;99.90;;;;;;5027151;28;20042;-73
2023/08/09 08:22:46;;;;;;;3.20;1.00;;;17.70;99.90;;;;;;5032427;28;20048;-73
2023/08/09 08:25:12;;;;;;;4.60;0.93;;;17.90;99.90;;;;;;5043968;28;20056;-73
2023/08/09 08:27:42;;;;;;;6.70;1.17;;;17.90;99.90;;;;;;5035766;28;20045;-72
2023/08/09 08:30:09;;;;;;;5.30;1.08;;;18.00;99.90;;;;;;5026803;28;20101;-73
2023/08/09 08:32:36;;;;;;;5.13;1.05;;;18.10;99.90;;;;;;5026766;28;20172;-73
2023/08/09 08:35:02;;;;;;;4.50;0.90;;;18.20;99.90;;;;;;5026212;28;20636;-73
2023/08/09 08:37:28;;;;;;;7.43;1.30;;;18.20;99.90;;;;;;5026990;28;20060;-73
2023/08/09 08:39:55;;;;;;;6.43;1.20;;;18.20;99.90;;;;;;5026997;28;20053;-72
2023/08/09 08:42:21;;;;;;;3.83;1.10;;;18.10;99.90;;;;;;5044169;28;20044;-71
2023/08/09 08:44:47;;;;;;;3.65;1.10;;;18.00;99.90;;;;;;5044658;28;20048;-72
2023/08/09 08:47:13;;;;;;;5.32;0.80;;;18.00;99.90;;;;;;5036352;28;20049;-72
2023/08/09 08:49:44;;;;;;;1.67;0.80;;;18.00;99.90;;;;;;5032847;28;20102;-72
2023/08/09 08:52:12;;;;;;;3.03;0.70;;;18.00;99.90;;;;;;5042078;28;20060;-73
2023/08/09 08:54:38;;;;;;;5.60;1.10;;;18.10;99.90;;;;;;5040233;28;20052;-72
2023/08/09 08:57:04;;;;;;;4.15;1.00;;;18.10;99.90;;;;;;5040185;28;20033;-73
2023/08/09 08:59:30;;;;;;;4.15;1.05;;;18.00;99.90;;;;;;5040520;28;20053;-73
2023/08/09 09:01:57;;;;;;;2.28;0.70;;;18.00;99.90;;;;;;5019693;28;20079;-72
2023/08/09 09:04:23;;;;;;;5.80;1.00;;;18.00;99.90;;;;;;5037803;28;20484;-73
2023/08/09 09:06:50;;;;;;;3.30;0.90;;;18.00;99.90;;;;;;5027123;28;20049;-73
2023/08/09 09:09:15;;;;;;;2.00;0.65;;;18.20;99.90;;;;;;5040108;28;20528;-73
2023/08/09 09:11:45;;;;;;;4.57;0.80;;;18.30;99.90;;;;;;5037033;28;20074;-73
2023/08/09 09:14:12;;;;;;;4.53;1.10;;;18.30;99.90;;;;;;5034921;28;20038;-72
2023/08/09 09:16:38;;;;;;;5.93;0.80;;;18.30;99.90;;;;;;5044500;28;20072;-72
2023/08/09 09:19:04;;;;;;;3.47;0.88;;;18.20;99.90;;;;;;5036686;28;20041;-72
2023/08/09 09:21:31;;;;;;;5.40;1.10;;;18.30;99.90;;;;;;5041921;28;20041;-72
2023/08/09 09:24:05;;;;;;;4.65;1.00;;;18.30;99.90;;;;;;5029673;28;20044;-73
2023/08/09 09:26:31;;;;;;;4.25;1.10;;;18.40;99.90;;;;;;5048928;28;20120;-72
2023/08/09 09:28:57;;;;;;;5.85;1.20;;;18.40;99.90;;;;;;5037079;28;20046;-72
2023/08/09 09:31:38;;;;;;;4.85;1.15;;;18.40;99.90;;;;;;5036108;28;20107;-72
2023/08/09 09:34:11;;;;;;;4.57;0.95;;;18.40;99.90;;;;;;5035173;28;20095;-72
2023/08/09 09:36:48;;;;;;;5.47;1.00;;;18.50;99.90;;;;;;5034179;28;20470;-73
2023/08/09 09:39:14;;;;;;;4.38;1.13;;;18.50;99.90;;;;;;5037863;28;20045;-73
2023/08/09 09:41:47;;;;;;;2.92;1.08;;;18.70;99.90;;;;;;5044968;28;20448;-73
2023/08/09 09:44:20;;;;;;;3.63;0.90;;;18.70;99.90;;;;;;5035723;28;20687;-72
2023/08/09 09:46:51;;;;;;;3.03;0.80;;;18.80;99.90;;;;;;5036139;28;20065;-72
2023/08/09 09:49:18;;;;;;;;;;;18.80;99.90;;;;;;5033491;28;20077;-72
2023/08/09 09:51:45;;;;;;;5.25;0.88;;;18.80;99.90;;;;;;5035936;28;19932;-73
2023/08/09 09:54:11;;;;;;;3.70;0.95;;;18.90;99.90;;;;;;5033151;28;20410;-73
2023/08/09 09:56:37;;;;;;;6.40;0.95;;;18.90;99.90;;;;;;5048293;28;20143;-73
2023/08/09 09:59:04;;;;;;;4.60;1.10;;;18.90;99.90;;;;;;5047005;28;20064;-73
2023/08/09 10:01:32;;;;;;;3.92;0.90;;;18.90;99.90;;;;;;5044513;28;20041;-74
2023/08/09 10:04:10;;;;;;;6.40;1.00;;;19.00;99.90;;;;;;5026162;28;20045;-73
2023/08/09 10:06:42;;;;;;;3.53;1.08;;;19.10;99.90;;;;;;5042288;28;20068;-73
2023/08/09 10:09:09;;;;;;;6.18;1.17;;;19.20;99.90;;;;;;5038586;28;20069;-74
2023/08/09 10:11:36;;;;;;;3.08;0.80;;;19.30;99.90;;;;;;5036200;28;20057;-74
2023/08/09 10:14:07;;;;;;;4.78;0.90;;;19.40;99.90;;;;;;5034686;28;20115;-73
2023/08/09 10:16:35;;;;;;;4.63;0.95;;;19.40;99.90;;;;;;5036875;28;20063;-74
2023/08/09 10:19:07;;;;;;;4.28;1.05;;;19.30;99.90;;;;;;5035371;28;20087;-73
2023/08/09 10:21:34;;;;;;;4.75;1.20;;;19.30;99.90;;;;;;5038279;28;20133;-74
2023/08/09 10:24:06;;;;;;;2.10;0.90;;;19.30;99.90;;;;;;5039611;28;20532;-74
2023/08/09 10:26:32;;;;;;;3.65;1.00;;;19.40;99.90;;;;;;5044465;28;20072;-73
2023/08/09 10:29:19;;;;;;;3.13;0.93;;;19.50;99.90;;;;;;5046634;28;20044;-74
2023/08/09 10:32:04;;;;;;;5.60;1.50;;;19.50;99.90;;;;;;5046212;28;20041;-75
2023/08/09 10:34:41;;;;;;;4.10;1.00;;;19.50;99.90;;;;;;5028430;28;20128;-74
2023/08/09 10:37:09;;;;;;;6.38;1.20;;;19.40;99.90;;;;;;5048675;28;20057;-74
2023/08/09 10:39:36;;;;;;;3.35;0.90;;;19.40;99.90;;;;;;5049394;28;20513;-74
2023/08/09 10:42:08;;;;;;;2.80;0.80;;;19.30;99.90;;;;;;5036167;28;20041;-74
2023/08/09 10:44:35;;;;;;;7.55;1.98;;;19.40;99.90;;;;;;5038197;28;20041;-74
2023/08/09 10:47:04;;;;;;;3.40;1.20;;;19.50;99.90;;;;;;5045181;28;20045;-74
2023/08/09 10:50:01;;;;;;;4.53;1.00;;;19.60;99.90;;;;;;5037741;28;20129;-74
2023/08/09 10:52:40;;;;;;;3.53;1.10;;;19.60;99.90;;;;;;5040590;28;20052;-74
2023/08/09 10:55:26;;;;;;;5.32;1.23;;;19.70;99.90;;;;;;5033625;28;20107;-74
2023/08/09 10:57:53;;;;;;;4.35;1.33;;;19.80;99.90;;;;;;5035465;28;20038;-76
2023/08/09 11:00:21;;;;;;;4.95;0.90;;;19.90;99.90;;;;;;5052316;28;20128;-75
2023/08/09 11:02:51;;;;;;;9.38;1.35;;;20.00;99.90;;;;;;5022777;28;20052;-75
2023/08/09 11:05:17;;;;;;;6.20;1.23;;;20.00;99.90;;;;;;5026148;28;20048;-75
2023/08/09 11:07:55;;;;;;;4.88;1.15;;;20.00;99.90;;;;;;5036667;28;20045;-76
2023/08/09 11:10:39;;;;;;;5.03;1.00;;;20.10;99.90;;;;;;5044119;28;20056;-75
2023/08/09 11:13:09;;;;;;;4.55;0.90;;;20.20;99.90;;;;;;5041771;28;20517;-75
2023/08/09 11:15:36;;;;;;;3.30;0.80;;;20.30;99.90;;;;;;5027858;28;20053;-75
2023/08/09 11:18:02;;;;;;;5.53;0.98;;;20.30;99.90;;;;;;5037244;28;20140;-75
2023/08/09 11:20:29;;;;;;;2.10;0.82;;;20.40;99.90;;;;;;5034865;28;20049;-75
2023/08/09 11:22:57;;;;;;;3.13;0.88;;;20.50;99.90;;;;;;5041102;28;20065;-74
2023/08/09 11:25:24;;;;;;;3.53;0.90;;;20.50;99.90;;;;;;5036079;28;20789;-75
2023/08/09 11:27:55;;;;;;;3.80;0.90;;;20.50;99.90;;;;;;5040138;28;20536;-75
2023/08/09 11:30:22;;;;;;;2.15;0.85;;;20.50;99.90;;;;;;5042319;28;20118;-75
2023/08/09 11:33:02;;;;;;;4.90;0.90;;;20.60;99.90;;;;;;5037041;28;20509;-75
2023/08/09 11:35:43;;;;;;;6.55;1.40;;;20.70;99.90;;;;;;5058389;28;20042;-71
2023/08/09 11:38:10;;;;;;;4.07;1.02;;;20.70;99.90;;;;;;5034575;28;20073;-71
2023/08/09 11:40:45;;;;;;;3.50;1.55;;;20.80;99.90;;;;;;5032469;28;20408;-72
2023/08/09 11:43:16;;;;;;;2.17;0.82;;;20.90;99.90;;;;;;5036158;28;20539;-72
2023/08/09 11:45:53;;;;;;;3.53;0.90;;;21.00;99.90;;;;;;5031941;28;20502;-72
2023/08/09 11:48:45;;;;;;;4.03;1.13;;;21.00;99.90;;;;;;5024071;28;20052;-72
2023/08/09 11:51:12;;;;;;;3.33;1.02;;;21.00;99.90;;;;;;5031320;28;20065;-73
2023/08/09 11:53:39;;;;;;;2.95;1.17;;;21.10;99.90;;;;;;5014586;28;20609;-72
2023/08/09 11:56:26;;;;;;;5.10;1.15;;;21.20;99.90;;;;;;5037519;28;20042;-72
2023/08/09 11:58:54;;;;;;;3.90;1.13;;;21.30;99.90;;;;;;5019817;28;20063;-73
2023/08/09 12:01:22;;;;;;;5.55;0.90;;;21.30;99.90;;;;;;5044531;28;20064;-72
2023/08/09 12:03:53;;;;;;;3.10;1.10;;;21.30;99.90;;;;;;5054987;28;20105;-73
2023/08/09 12:06:37;;;;;;;3.22;0.90;;;21.30;99.90;;;;;;5034928;28;20046;-72
2023/08/09 12:09:34;;;;;;;2.58;0.95;;;21.20;99.90;;;;;;5043795;28;20733;-72
2023/08/09 12:12:34;;;;;;;5.30;0.90;;;21.10;99.90;;;;;;5049626;28;20048;-73
2023/08/09 12:14:59;;;;;;;4.32;1.02;;;20.90;99.90;;;;;;5034921;28;20041;-72
2023/08/09 12:17:28;;;;;;;3.22;1.00;;;20.70;99.90;;;;;;5032405;28;20052;-72
2023/08/09 12:19:59;;;;;;;4.28;0.98;;;20.60;99.90;;;;;;5041542;28;20100;-74
2023/08/09 12:22:25;;;;;;;2.63;0.88;;;20.50;99.90;;;;;;5037286;28;20088;-73
2023/08/09 12:24:52;;;;;;;4.95;1.08;;;20.50;99.90;;;;;;5036926;28;20060;-74
2023/08/09 12:27:19;;;;;;;5.05;1.23;;;20.40;99.90;;;;;;5044492;28;20043;-73
2023/08/09 12:29:49;;;;;;;5.40;0.95;;;20.40;99.90;;;;;;5029797;28;20041;-75
2023/08/09 12:32:15;;;;;;;4.18;1.08;;;20.50;99.90;;;;;;5046156;28;20040;-75
2023/08/09 12:34:41;;;;;;;8.20;1.48;;;20.50;99.90;;;;;;5046220;28;20103;-75
2023/08/09 12:37:07;;;;;;;5.32;1.00;;;20.60;99.90;;;;;;5041421;28;20056;-73
2023/08/09 12:39:34;;;;;;;2.97;1.00;;;20.60;99.90;;;;;;5029221;28;20049;-73
2023/08/09 12:42:02;;;;;;;7.75;1.50;;;20.60;99.90;;;;;;5030505;28;20056;-73
2023/08/09 12:44:28;;;;;;;5.05;1.20;;;20.50;99.90;;;;;;5062436;28;20128;-75
2023/08/09 12:46:54;;;;;;;6.00;1.15;;;20.50;99.90;;;;;;5032694;28;20099;-73
2023/08/09 12:49:20;;;;;;;6.22;1.40;;;20.40;99.90;;;;;;5020727;28;20044;-74
2023/08/09 12:51:46;;;;;;;3.10;1.13;;;20.50;99.90;;;;;;5031300;28;20056;-74